createdAt,value
2022-08-03T00:02:38.135Z,9.50
2022-08-03T00:06:04.796Z,11.63
2022-08-03T00:09:06.011Z,8.88
2022-08-03T00:12:09.694Z,7.88
2022-08-03T00:15:16.637Z,9.35
2022-08-03T00:18:20.452Z,9.95
2022-08-03T00:21:23.693Z,10.60
2022-08-03T00:24:26.919Z,10.90
2022-08-03T00:27:30.044Z,9.88
2022-08-03T00:30:37.238Z,12.90
2022-08-03T00:33:57.903Z,9.05
2022-08-03T00:37:02.342Z,8.60
2022-08-03T00:40:06.128Z,8.20
2022-08-03T00:43:10.672Z,8.75
2022-08-03T00:46:19.021Z,7.22
2022-08-03T00:49:24.887Z,9.43
2022-08-03T00:52:28.168Z,7.73
2022-08-03T00:55:31.384Z,8.38
2022-08-03T00:58:35.954Z,9.25
2022-08-03T01:01:39.221Z,10.40
2022-08-03T01:04:42.397Z,7.88
2022-08-03T01:08:08.230Z,7.83
2022-08-03T01:11:34.865Z,9.20
2022-08-03T01:15:00.229Z,8.85
2022-08-03T01:18:29.015Z,11.30
2022-08-03T01:22:03.043Z,9.20
2022-08-03T01:25:40.267Z,8.90
2022-08-03T01:29:05.382Z,10.10
2022-08-03T01:32:59.326Z,9.75
2022-08-03T01:35:50.571Z,10.23
2022-08-03T01:39:01.281Z,8.50
2022-08-03T01:42:07.614Z,9.47
2022-08-03T01:45:13.850Z,9.80
2022-08-03T01:48:19.257Z,8.80
2022-08-03T01:51:23.414Z,9.63
2022-08-03T01:54:27.673Z,9.45
2022-08-03T01:57:35.343Z,10.13
2022-08-03T02:01:01.487Z,8.23
2022-08-03T02:04:06.589Z,9.65
2022-08-03T02:07:12.091Z,11.50
2022-08-03T02:10:34.621Z,10.85
2022-08-03T02:13:39.576Z,10.30
2022-08-03T02:16:45.893Z,9.10
2022-08-03T02:19:50.671Z,10.10
2022-08-03T02:22:54.482Z,12.52
2022-08-03T02:26:04.701Z,11.27
2022-08-03T02:29:13.739Z,9.87
2022-08-03T02:32:23.020Z,12.30
2022-08-03T02:35:28.362Z,11.10
2022-08-03T02:38:38.887Z,12.15
2022-08-03T02:41:49.902Z,10.73
2022-08-03T02:44:57.294Z,12.67
2022-08-03T02:48:04.079Z,10.55
2022-08-03T02:51:07.946Z,11.60
2022-08-03T02:54:12.101Z,13.48
2022-08-03T02:57:16.905Z,9.63
2022-08-03T03:00:27.872Z,9.97
2022-08-03T03:03:35.965Z,11.35
2022-08-03T03:06:49.172Z,10.70
2022-08-03T03:09:53.521Z,11.93
2022-08-03T03:12:59.146Z,10.82
2022-08-03T03:16:04.802Z,10.33
2022-08-03T03:19:09.530Z,11.13
2022-08-03T03:22:15.362Z,13.55
2022-08-03T03:25:19.496Z,10.55
2022-08-03T03:28:25.411Z,10.48
2022-08-03T03:31:28.551Z,15.77
2022-08-03T03:34:32.847Z,14.25
2022-08-03T03:37:36.524Z,12.38
2022-08-03T03:40:41.048Z,10.35
2022-08-03T03:43:44.454Z,11.10
2022-08-03T03:46:47.824Z,10.93
2022-08-03T03:49:52.461Z,12.02
2022-08-03T03:52:55.765Z,12.18
2022-08-03T03:56:02.465Z,11.02
2022-08-03T03:59:06.284Z,10.55
2022-08-03T04:02:10.935Z,11.00
2022-08-03T04:05:33.919Z,11.25
2022-08-03T04:08:55.717Z,13.77
2022-08-03T04:12:01.863Z,10.57
2022-08-03T04:15:06.471Z,12.40
2022-08-03T04:18:13.903Z,12.00
2022-08-03T04:21:19.524Z,11.98
2022-08-03T04:24:26.554Z,14.43
2022-08-03T04:27:36.440Z,11.80
2022-08-03T04:30:47.561Z,10.80
2022-08-03T04:33:53.582Z,11.53
2022-08-03T04:37:01.464Z,11.73
2022-08-03T04:40:08.682Z,12.32
2022-08-03T04:43:15.067Z,16.13
2022-08-03T04:46:21.986Z,11.95
2022-08-03T04:49:26.727Z,11.83
2022-08-03T04:52:30.681Z,11.23
2022-08-03T04:55:35.306Z,16.15
2022-08-03T04:58:38.487Z,11.27
2022-08-03T05:01:42.345Z,12.07
2022-08-03T05:04:46.584Z,11.37
2022-08-03T05:07:50.158Z,11.85
2022-08-03T05:10:53.855Z,12.05
2022-08-03T05:13:57.061Z,11.52
2022-08-03T05:17:00.249Z,11.32
2022-08-03T05:20:04.550Z,13.87
2022-08-03T05:23:11.543Z,13.93
2022-08-03T05:26:14.747Z,15.10
2022-08-03T05:29:17.949Z,15.60
2022-08-03T05:32:21.462Z,12.93
2022-08-03T05:35:57.568Z,10.70
2022-08-03T05:38:48.674Z,12.70
2022-08-03T05:41:51.842Z,11.45
2022-08-03T05:44:56.140Z,12.80
2022-08-03T05:47:59.331Z,12.35
2022-08-03T05:51:02.535Z,10.17
2022-08-03T05:54:05.753Z,12.10
2022-08-03T05:57:09.898Z,11.77
2022-08-03T06:00:13.497Z,15.52
2022-08-03T06:03:20.132Z,16.08
2022-08-03T06:06:28.292Z,11.93
2022-08-03T06:09:56.611Z,10.50
2022-08-03T06:12:58.293Z,12.02
2022-08-03T06:16:01.515Z,10.88
2022-08-03T06:19:04.936Z,13.20
2022-08-03T06:22:08.155Z,11.30
2022-08-03T06:25:14.170Z,12.65
2022-08-03T06:28:51.378Z,10.20
2022-08-03T06:31:41.454Z,12.45
2022-08-03T06:34:44.678Z,14.00
2022-08-03T06:37:49.827Z,12.40
2022-08-03T06:40:53.359Z,15.32
2022-08-03T06:44:03.573Z,12.55
2022-08-03T06:47:07.561Z,9.32
2022-08-03T06:50:17.156Z,10.63
2022-08-03T06:53:21.704Z,12.60
2022-08-03T06:56:24.864Z,11.68
2022-08-03T07:00:10.363Z,12.93
2022-08-03T07:02:56.139Z,8.75
2022-08-03T07:06:01.236Z,14.60
2022-08-03T07:09:06.651Z,10.33
2022-08-03T07:12:09.972Z,13.32
2022-08-03T07:15:20.186Z,10.13
2022-08-03T07:18:29.331Z,10.38
2022-08-03T07:21:33.356Z,14.32
2022-08-03T07:24:42.825Z,8.80
2022-08-03T07:27:51.616Z,9.65
2022-08-03T07:30:55.153Z,9.95
2022-08-03T07:33:58.349Z,8.98
2022-08-03T07:37:01.574Z,10.80
2022-08-03T07:40:07.595Z,8.67
2022-08-03T07:43:11.107Z,10.25
2022-08-03T07:46:16.874Z,10.63
2022-08-03T07:49:20.319Z,8.52
2022-08-03T07:52:42.142Z,7.50
2022-08-03T07:55:45.305Z,8.63
2022-08-03T07:58:48.559Z,7.32
2022-08-03T08:01:53.648Z,6.65
2022-08-03T08:04:56.821Z,12.73
2022-08-03T08:08:00.893Z,12.88
2022-08-03T08:11:04.343Z,8.43
2022-08-03T08:14:08.094Z,9.57
2022-08-03T08:17:15.080Z,8.30
2022-08-03T08:20:31.415Z,9.15
2022-08-03T08:23:43.422Z,11.43
2022-08-03T08:26:48.080Z,6.87
2022-08-03T08:29:54.222Z,6.78
2022-08-03T08:32:58.945Z,9.00
2022-08-03T08:36:02.148Z,7.10
2022-08-03T08:39:05.326Z,8.95
2022-08-03T08:42:09.868Z,11.00
2022-08-03T08:45:14.985Z,8.90
2022-08-03T08:48:23.636Z,7.18
2022-08-03T08:51:54.493Z,9.63
2022-08-03T08:55:00.353Z,7.63
2022-08-03T08:58:06.536Z,7.27
2022-08-03T09:01:10.234Z,8.85
2022-08-03T09:04:13.806Z,6.43
2022-08-03T09:07:20.388Z,14.60
2022-08-03T09:13:41.824Z,7.87
2022-08-03T09:17:02.526Z,9.82
2022-08-03T09:20:09.163Z,8.80
2022-08-03T09:23:58.948Z,6.97
2022-08-03T09:26:37.943Z,8.23
2022-08-03T09:29:48.931Z,6.27
2022-08-03T09:33:11.085Z,9.35
2022-08-03T09:36:35.606Z,6.50
2022-08-03T09:39:41.487Z,7.60
2022-08-03T09:42:57.974Z,5.60
2022-08-03T09:46:07.364Z,5.83
2022-08-03T09:49:14.110Z,7.65
2022-08-03T09:52:32.823Z,7.80
2022-08-03T09:56:35.783Z,6.60
2022-08-03T09:59:35.612Z,8.18
2022-08-03T10:02:44.556Z,8.87
2022-08-03T10:05:47.743Z,9.52
2022-08-03T10:09:13.791Z,7.13
2022-08-03T10:12:16.999Z,12.55
2022-08-03T10:16:21.152Z,5.70
2022-08-03T10:18:44.079Z,7.50
2022-08-03T10:21:53.713Z,6.80
2022-08-03T10:25:00.085Z,7.90
2022-08-03T10:28:04.559Z,6.43
2022-08-03T10:31:08.170Z,8.13
2022-08-03T10:34:35.095Z,6.00
2022-08-03T10:38:16.627Z,12.02
2022-08-03T10:41:26.067Z,6.22
2022-08-03T10:44:37.746Z,7.40
2022-08-03T10:47:41.455Z,10.63
2022-08-03T10:50:45.837Z,5.97
2022-08-03T10:53:55.470Z,6.78
2022-08-03T10:57:18.222Z,6.40
2022-08-03T11:00:50.431Z,7.80
2022-08-03T11:03:53.617Z,7.55
2022-08-03T11:07:22.250Z,5.63
2022-08-03T11:10:32.550Z,6.18
2022-08-03T11:13:35.773Z,7.78
2022-08-03T11:17:03.147Z,6.43
2022-08-03T11:20:07.015Z,6.65
2022-08-03T11:23:10.309Z,8.63
2022-08-03T11:26:22.643Z,7.97
2022-08-03T11:29:29.303Z,7.53
2022-08-03T11:32:38.591Z,6.05
2022-08-03T11:36:00.740Z,5.70
2022-08-03T11:39:16.829Z,7.67
2022-08-03T11:42:23.499Z,5.70
2022-08-03T11:45:26.865Z,6.68
2022-08-03T11:48:45.500Z,5.50
2022-08-03T11:51:54.507Z,6.15
2022-08-03T11:54:57.764Z,8.77
2022-08-03T11:59:15.143Z,4.93
2022-08-03T12:01:25.054Z,7.72
2022-08-03T12:04:28.207Z,7.57
2022-08-03T12:08:03.555Z,5.43
2022-08-03T12:10:56.973Z,7.70
2022-08-03T12:14:49.163Z,5.03
2022-08-03T12:17:23.438Z,7.43
2022-08-03T12:20:31.344Z,7.43
2022-08-03T12:23:39.253Z,6.47
2022-08-03T12:26:58.738Z,4.40
2022-08-03T12:30:03.856Z,4.45
2022-08-03T12:33:56.038Z,4.60
2022-08-03T12:37:00.130Z,4.65
2022-08-03T12:40:10.601Z,4.05
2022-08-03T12:43:14.966Z,4.63
2022-08-03T12:46:19.796Z,6.30
2022-08-03T12:49:22.963Z,5.05
2022-08-03T12:52:27.248Z,7.03
2022-08-03T12:55:56.621Z,4.20
2022-08-03T12:59:01.929Z,7.33
2022-08-03T13:02:09.449Z,6.97
2022-08-03T13:05:14.762Z,7.55
2022-08-03T13:08:23.745Z,6.00
2022-08-03T13:11:50.544Z,4.97
2022-08-03T13:14:54.900Z,8.77
2022-08-03T13:17:58.113Z,4.90
2022-08-03T13:21:02.335Z,7.35
2022-08-03T13:24:05.777Z,6.70
2022-08-03T13:28:02.255Z,5.15
2022-08-03T13:30:36.223Z,5.07
2022-08-03T13:33:40.491Z,5.43
2022-08-03T13:37:08.072Z,5.88
2022-08-03T13:40:08.776Z,10.15
2022-08-03T13:43:15.177Z,6.53
2022-08-03T13:46:18.336Z,6.33
2022-08-03T13:49:22.327Z,7.85
2022-08-03T13:52:25.572Z,4.95
2022-08-03T13:55:28.789Z,6.38
2022-08-03T13:58:32.208Z,5.18
2022-08-03T14:01:54.429Z,6.27
2022-08-03T14:04:58.424Z,5.95
2022-08-03T14:08:04.111Z,5.60
2022-08-03T14:11:08.638Z,9.43
2022-08-03T14:14:12.430Z,5.55
2022-08-03T14:17:16.308Z,5.90
2022-08-03T14:20:38.717Z,5.78
2022-08-03T14:23:43.179Z,5.78
2022-08-03T14:26:47.921Z,9.73
2022-08-03T14:29:51.252Z,5.45
2022-08-03T14:32:57.926Z,8.13
2022-08-03T14:36:03.934Z,9.95
2022-08-03T14:39:07.050Z,9.48
2022-08-03T14:42:10.353Z,6.68
2022-08-03T14:45:19.725Z,6.10
2022-08-03T14:50:34.053Z,7.03
2022-08-03T14:51:53.295Z,8.10
2022-08-03T14:54:57.529Z,7.05
2022-08-03T14:58:05.481Z,6.28
2022-08-03T15:02:02.222Z,8.10
2022-08-03T15:04:45.996Z,8.37
2022-08-03T15:07:49.412Z,6.38
2022-08-03T15:10:53.891Z,5.97
2022-08-03T15:13:57.108Z,6.90
2022-08-03T15:17:00.416Z,5.55
2022-08-03T15:20:28.917Z,6.23
2022-08-03T15:23:30.480Z,5.95
2022-08-03T15:26:37.915Z,7.60
2022-08-03T15:30:08.755Z,5.53
2022-08-03T15:33:07.675Z,6.60
2022-08-03T15:36:10.762Z,7.97
2022-08-03T15:39:14.101Z,6.60
2022-08-03T15:42:17.261Z,6.63
2022-08-03T15:45:20.756Z,8.10
2022-08-03T15:48:26.537Z,7.65
2022-08-03T15:51:29.939Z,9.73
2022-08-03T15:54:33.080Z,5.88
2022-08-03T15:59:03.317Z,6.22
2022-08-03T16:01:02.854Z,5.15
2022-08-03T16:04:06.125Z,5.95
2022-08-03T16:07:12.566Z,6.43
2022-08-03T16:10:18.465Z,5.40
2022-08-03T16:13:22.451Z,7.70
2022-08-03T16:16:45.611Z,5.88
2022-08-03T16:19:50.276Z,5.75
2022-08-03T16:22:53.502Z,7.77
2022-08-03T16:25:56.740Z,7.05
2022-08-03T16:28:59.984Z,5.35
2022-08-03T16:32:09.351Z,6.05
2022-08-03T16:35:19.255Z,6.95
2022-08-03T16:38:24.767Z,6.70
2022-08-03T16:41:27.988Z,6.43
2022-08-03T16:44:51.344Z,5.82
2022-08-03T16:48:05.085Z,6.85
2022-08-03T16:51:09.308Z,6.72
2022-08-03T16:54:15.295Z,9.30
2022-08-03T16:57:29.782Z,5.95
2022-08-03T17:00:43.457Z,6.88
2022-08-03T17:04:02.222Z,6.97
2022-08-03T17:07:07.625Z,5.68
2022-08-03T17:10:14.978Z,9.43
2022-08-03T17:13:38.746Z,5.63
2022-08-03T17:16:52.530Z,14.93
2022-08-03T17:19:59.749Z,7.63
2022-08-03T17:23:34.948Z,5.38
2022-08-03T17:26:44.645Z,9.10
2022-08-03T17:29:53.016Z,6.78
2022-08-03T17:32:57.307Z,6.47
2022-08-03T17:36:01.208Z,5.30
2022-08-03T17:39:06.581Z,5.78
2022-08-03T17:42:28.997Z,8.17
2022-08-03T17:45:42.294Z,8.20
2022-08-03T17:48:56.948Z,8.98
2022-08-03T17:52:02.951Z,9.57
2022-08-03T17:55:57.326Z,7.97
2022-08-03T17:58:58.597Z,6.17
2022-08-03T18:02:51.581Z,6.30
2022-08-03T18:06:11.467Z,6.78
2022-08-03T18:10:03.484Z,5.88
2022-08-03T18:12:45.518Z,6.95
2022-08-03T18:16:02.362Z,5.47
2022-08-03T18:19:09.332Z,6.78
2022-08-03T18:22:14.073Z,9.27
2022-08-03T18:25:42.694Z,6.22
2022-08-03T18:28:51.459Z,6.85
2022-08-03T18:32:03.778Z,8.23
2022-08-03T18:35:13.746Z,6.85
2022-08-03T18:38:19.248Z,10.75
2022-08-03T18:41:32.840Z,7.93
2022-08-03T18:44:54.123Z,6.60
2022-08-03T18:48:27.214Z,7.77
2022-08-03T18:51:46.262Z,5.85
2022-08-03T18:55:19.894Z,8.40
2022-08-03T18:58:53.804Z,7.00
2022-08-03T19:02:05.296Z,5.55
2022-08-03T19:05:10.581Z,6.70
2022-08-03T19:08:26.858Z,12.77
2022-08-03T19:12:12.718Z,7.32
2022-08-03T19:15:12.559Z,8.18
2022-08-03T19:18:21.942Z,8.15
2022-08-03T19:21:26.631Z,5.67
2022-08-03T19:24:30.829Z,6.45
2022-08-03T19:27:35.130Z,5.13
2022-08-03T19:30:40.153Z,9.57
2022-08-03T19:33:56.028Z,7.53
2022-08-03T19:40:28.646Z,6.35
2022-08-03T19:43:53.907Z,10.05
2022-08-03T19:47:16.926Z,8.23
2022-08-03T19:50:22.024Z,5.15
2022-08-03T19:53:34.602Z,5.83
2022-08-03T19:56:46.466Z,6.65
2022-08-03T19:59:53.184Z,10.35
2022-08-03T20:02:57.380Z,7.22
2022-08-03T20:06:00.845Z,5.60
2022-08-03T20:09:05.229Z,5.97
2022-08-03T20:12:11.561Z,5.60
2022-08-03T20:15:18.030Z,9.10
2022-08-03T20:18:25.584Z,10.35
2022-08-03T20:21:33.753Z,6.95
2022-08-03T20:24:43.776Z,4.50
2022-08-03T20:28:07.155Z,6.03
2022-08-03T20:31:14.487Z,7.47
2022-08-03T20:34:17.719Z,6.50
2022-08-03T20:37:20.994Z,5.32
2022-08-03T20:40:27.564Z,6.00
2022-08-03T20:43:32.394Z,7.00
2022-08-03T20:46:50.087Z,7.85
2022-08-03T20:49:59.848Z,4.30
2022-08-03T20:53:06.033Z,5.35
2022-08-03T20:56:10.214Z,4.63
2022-08-03T20:59:15.160Z,7.57
2022-08-03T21:02:30.273Z,5.13
2022-08-03T21:05:48.267Z,6.18
2022-08-03T21:09:03.998Z,7.68
2022-08-03T21:12:12.765Z,4.33
2022-08-03T21:13:02.595Z,6.87
2022-08-03T21:16:06.080Z,6.75
2022-08-03T21:18:52.401Z,4.72
2022-08-03T21:21:57.737Z,6.32
2022-08-03T21:25:05.088Z,4.85
2022-08-03T21:28:08.484Z,6.47
2022-08-03T21:31:13.064Z,7.82
2022-08-03T21:34:17.401Z,4.43
2022-08-03T21:37:21.158Z,5.70
2022-08-03T21:40:25.483Z,5.32
2022-08-03T21:43:28.968Z,7.03
2022-08-03T21:46:40.297Z,5.10
2022-08-03T21:50:07.262Z,4.90
2022-08-03T21:53:12.098Z,5.72
2022-08-03T21:56:20.512Z,4.47
2022-08-03T21:59:24.427Z,4.50
2022-08-03T22:02:32.544Z,4.72
2022-08-03T22:05:43.322Z,6.70
2022-08-03T22:08:48.125Z,5.25
2022-08-03T22:11:54.109Z,4.88
2022-08-03T22:15:00.443Z,5.97
2022-08-03T22:18:05.508Z,5.22
2022-08-03T22:21:13.073Z,4.88
2022-08-03T22:24:19.618Z,4.82
2022-08-03T22:27:31.957Z,4.57
2022-08-03T22:30:36.289Z,6.40
2022-08-03T22:33:40.252Z,4.85
2022-08-03T22:36:43.665Z,7.20
2022-08-03T22:39:47.119Z,6.30
2022-08-03T22:42:52.433Z,6.32
2022-08-03T22:46:09.095Z,5.50
2022-08-03T22:49:14.948Z,4.07
2022-08-03T22:52:18.236Z,7.13
2022-08-03T22:55:24.607Z,4.47
2022-08-03T22:58:28.356Z,5.50
2022-08-03T23:01:41.021Z,5.30
2022-08-03T23:04:48.867Z,5.43
2022-08-03T23:07:53.528Z,5.10
2022-08-03T23:11:05.904Z,5.63
2022-08-03T23:14:15.176Z,9.13
2022-08-03T23:17:20.493Z,5.00
2022-08-03T23:20:26.681Z,5.22
2022-08-03T23:23:30.823Z,5.22
2022-08-03T23:26:49.703Z,5.45
2022-08-03T23:29:53.781Z,5.05
2022-08-03T23:32:57.771Z,5.60
2022-08-03T23:36:27.738Z,4.10
2022-08-03T23:39:35.069Z,4.80
2022-08-03T23:42:39.294Z,4.85
2022-08-03T23:45:45.992Z,7.28
2022-08-03T23:48:50.036Z,6.00
2022-08-03T23:52:01.773Z,6.45
2022-08-03T23:55:32.699Z,6.10
2022-08-03T23:58:41.668Z,6.45
